CheckWX is a tool to help pilots better visualize weather data.  It is not intended as a substitute for an official pre-flight weather briefing.

19:41:58 UTC

EDGS METAR
Siegerland Airport
Germany
Current

2 hours ago

EDGS 261750Z 25007KT 9999 BKN049 16/08 Q1013
Observed
May-26 @ 17:50 UTC
Wind
  • 250° at 7 KTS
Visibility
10,000+ meters
Flight Rules
VFR
Cloud Levels
  • Broken at 4,900' AGL
Temperature
16°C / 61°F
Dewpoint
C / 46°F
Humidity
59%
Altimeter
29.91" Hg
Pressure
1012.92 hPa
Previous

2 hours ago

EDGS 261720Z 26008KT 9999 BKN049 16/08 Q1013
Observed
May-26 @ 17:20 UTC
Wind
  • 260° at 8 KTS
Visibility
10,000+ meters
Flight Rules
VFR
Cloud Levels
  • Broken at 4,900' AGL
Temperature
16°C / 61°F
Dewpoint
C / 46°F
Humidity
59%
Altimeter
29.91" Hg
Pressure
1012.92 hPa
Previous

3 hours ago

EDGS 261650Z 26009KT 9999 BKN049 17/08 Q1013
Observed
May-26 @ 16:50 UTC
Wind
  • 260° at 9 KTS
Visibility
10,000+ meters
Flight Rules
VFR
Cloud Levels
  • Broken at 4,900' AGL
Temperature
17°C / 63°F
Dewpoint
C / 46°F
Humidity
56%
Altimeter
29.91" Hg
Pressure
1012.92 hPa